Terminal Aerodrome Forecast
Issued by NWS

Home | Current Version | Previous Version | Text Only | Print | Product List | Glossary On
Versions: 1 2 3 4 5 6 7 8 9 10 11 12
000
FTUS45 KLKN 241720
TAFWMC
TAF
KWMC 241720Z 2418/2518 VRB06KT P6SM SCT070
     FM242100 VRB06KT P6SM VCTS SCT070CB BKN090
     FM250400 07010G20KT P6SM VCSH SCT040 BKN060=

USA.gov is the U.S. government's official web portal to all federal, state and local government web resources and services.